sensor_id;sensor_type;location;lat;lon;timestamp;P1;durP1;ratioP1;P2;durP2;ratioP2
10701;SDS011;5402;50.004;8.246;2023-01-29T00:01:45;3.53;;;3.20;;
10701;SDS011;5402;50.004;8.246;2023-01-29T00:04:13;3.80;;;3.00;;
10701;SDS011;5402;50.004;8.246;2023-01-29T00:06:39;3.40;;;3.10;;
10701;SDS011;5402;50.004;8.246;2023-01-29T00:09:06;3.27;;;2.97;;
10701;SDS011;5402;50.004;8.246;2023-01-29T00:11:33;5.87;;;3.30;;
10701;SDS011;5402;50.004;8.246;2023-01-29T00:14:00;5.80;;;3.53;;
10701;SDS011;5402;50.004;8.246;2023-01-29T00:16:27;4.33;;;3.50;;
10701;SDS011;5402;50.004;8.246;2023-01-29T00:18:53;3.60;;;3.23;;
10701;SDS011;5402;50.004;8.246;2023-01-29T00:21:22;3.83;;;3.10;;
10701;SDS011;5402;50.004;8.246;2023-01-29T00:23:49;3.90;;;3.13;;
10701;SDS011;5402;50.004;8.246;2023-01-29T00:26:16;4.77;;;3.20;;
10701;SDS011;5402;50.004;8.246;2023-01-29T00:28:43;7.23;;;3.40;;
10701;SDS011;5402;50.004;8.246;2023-01-29T00:31:10;3.60;;;3.03;;
10701;SDS011;5402;50.004;8.246;2023-01-29T00:33:38;4.13;;;3.50;;
10701;SDS011;5402;50.004;8.246;2023-01-29T00:36:07;5.00;;;3.50;;
10701;SDS011;5402;50.004;8.246;2023-01-29T00:38:37;5.90;;;3.20;;
10701;SDS011;5402;50.004;8.246;2023-01-29T00:41:04;5.20;;;3.40;;
10701;SDS011;5402;50.004;8.246;2023-01-29T00:43:49;4.40;;;3.70;;
10701;SDS011;5402;50.004;8.246;2023-01-29T00:46:36;5.33;;;3.50;;
10701;SDS011;5402;50.004;8.246;2023-01-29T00:49:03;4.43;;;3.73;;
10701;SDS011;5402;50.004;8.246;2023-01-29T00:51:31;4.77;;;3.60;;
10701;SDS011;5402;50.004;8.246;2023-01-29T00:53:59;5.57;;;3.93;;
10701;SDS011;5402;50.004;8.246;2023-01-29T00:56:26;5.47;;;4.10;;
10701;SDS011;5402;50.004;8.246;2023-01-29T00:58:53;5.40;;;3.67;;
10701;SDS011;5402;50.004;8.246;2023-01-29T01:01:20;6.63;;;4.17;;
10701;SDS011;5402;50.004;8.246;2023-01-29T01:04:02;6.13;;;4.43;;
10701;SDS011;5402;50.004;8.246;2023-01-29T01:06:28;6.90;;;3.93;;
10701;SDS011;5402;50.004;8.246;2023-01-29T01:08:55;4.10;;;3.10;;
10701;SDS011;5402;50.004;8.246;2023-01-29T01:11:41;3.80;;;3.40;;
10701;SDS011;5402;50.004;8.246;2023-01-29T01:14:07;4.50;;;4.03;;
10701;SDS011;5402;50.004;8.246;2023-01-29T01:16:34;5.23;;;3.80;;
10701;SDS011;5402;50.004;8.246;2023-01-29T01:19:01;4.83;;;3.73;;
10701;SDS011;5402;50.004;8.246;2023-01-29T01:21:28;5.53;;;3.63;;
10701;SDS011;5402;50.004;8.246;2023-01-29T01:23:54;4.33;;;3.50;;
10701;SDS011;5402;50.004;8.246;2023-01-29T01:26:21;5.03;;;3.87;;
10701;SDS011;5402;50.004;8.246;2023-01-29T01:28:49;6.70;;;4.30;;
10701;SDS011;5402;50.004;8.246;2023-01-29T01:31:16;4.70;;;4.20;;
10701;SDS011;5402;50.004;8.246;2023-01-29T01:33:43;6.20;;;3.90;;
10701;SDS011;5402;50.004;8.246;2023-01-29T01:36:10;4.00;;;3.57;;
10701;SDS011;5402;50.004;8.246;2023-01-29T01:38:37;4.83;;;3.63;;
10701;SDS011;5402;50.004;8.246;2023-01-29T01:41:08;5.10;;;3.57;;
10701;SDS011;5402;50.004;8.246;2023-01-29T01:43:51;6.47;;;3.87;;
10701;SDS011;5402;50.004;8.246;2023-01-29T01:46:20;4.63;;;3.63;;
10701;SDS011;5402;50.004;8.246;2023-01-29T01:48:48;4.67;;;3.80;;
10701;SDS011;5402;50.004;8.246;2023-01-29T01:51:20;6.93;;;3.83;;
10701;SDS011;5402;50.004;8.246;2023-01-29T01:53:50;4.30;;;3.90;;
10701;SDS011;5402;50.004;8.246;2023-01-29T01:56:20;5.13;;;4.00;;
10701;SDS011;5402;50.004;8.246;2023-01-29T01:58:53;7.20;;;3.70;;
10701;SDS011;5402;50.004;8.246;2023-01-29T02:01:21;5.77;;;3.73;;
10701;SDS011;5402;50.004;8.246;2023-01-29T02:03:53;6.47;;;4.30;;
10701;SDS011;5402;50.004;8.246;2023-01-29T02:06:40;4.80;;;4.07;;
10701;SDS011;5402;50.004;8.246;2023-01-29T02:09:26;5.47;;;4.00;;
10701;SDS011;5402;50.004;8.246;2023-01-29T02:12:01;5.50;;;4.30;;
10701;SDS011;5402;50.004;8.246;2023-01-29T02:14:30;4.87;;;4.30;;
10701;SDS011;5402;50.004;8.246;2023-01-29T02:16:58;4.50;;;3.80;;
10701;SDS011;5402;50.004;8.246;2023-01-29T02:19:29;6.03;;;4.33;;
10701;SDS011;5402;50.004;8.246;2023-01-29T02:22:23;7.23;;;4.47;;
10701;SDS011;5402;50.004;8.246;2023-01-29T02:25:20;4.77;;;4.27;;
10701;SDS011;5402;50.004;8.246;2023-01-29T02:28:06;6.63;;;4.20;;
10701;SDS011;5402;50.004;8.246;2023-01-29T02:30:48;5.57;;;4.73;;
10701;SDS011;5402;50.004;8.246;2023-01-29T02:33:25;6.63;;;4.30;;
10701;SDS011;5402;50.004;8.246;2023-01-29T02:36:03;7.57;;;4.77;;
10701;SDS011;5402;50.004;8.246;2023-01-29T02:38:39;6.60;;;4.77;;
10701;SDS011;5402;50.004;8.246;2023-01-29T02:41:12;6.93;;;4.60;;
10701;SDS011;5402;50.004;8.246;2023-01-29T02:43:43;7.53;;;5.03;;
10701;SDS011;5402;50.004;8.246;2023-01-29T02:46:14;5.90;;;4.87;;
10701;SDS011;5402;50.004;8.246;2023-01-29T02:48:44;5.77;;;4.93;;
10701;SDS011;5402;50.004;8.246;2023-01-29T02:51:19;6.13;;;4.40;;
10701;SDS011;5402;50.004;8.246;2023-01-29T02:53:53;8.57;;;5.40;;
10701;SDS011;5402;50.004;8.246;2023-01-29T02:56:26;9.87;;;5.20;;
10701;SDS011;5402;50.004;8.246;2023-01-29T02:59:02;8.90;;;5.07;;
10701;SDS011;5402;50.004;8.246;2023-01-29T03:01:36;10.30;;;5.63;;
10701;SDS011;5402;50.004;8.246;2023-01-29T03:04:10;8.50;;;5.50;;
10701;SDS011;5402;50.004;8.246;2023-01-29T03:06:42;8.03;;;5.87;;
10701;SDS011;5402;50.004;8.246;2023-01-29T03:09:14;9.20;;;5.13;;
10701;SDS011;5402;50.004;8.246;2023-01-29T03:11:46;7.60;;;5.60;;
10701;SDS011;5402;50.004;8.246;2023-01-29T03:14:20;10.17;;;5.90;;
10701;SDS011;5402;50.004;8.246;2023-01-29T03:17:12;8.53;;;5.67;;
10701;SDS011;5402;50.004;8.246;2023-01-29T03:19:40;8.00;;;5.30;;
10701;SDS011;5402;50.004;8.246;2023-01-29T03:22:11;7.63;;;4.87;;
10701;SDS011;5402;50.004;8.246;2023-01-29T03:24:41;9.13;;;5.00;;
10701;SDS011;5402;50.004;8.246;2023-01-29T03:27:30;7.57;;;5.27;;
10701;SDS011;5402;50.004;8.246;2023-01-29T03:30:20;6.13;;;4.87;;
10701;SDS011;5402;50.004;8.246;2023-01-29T03:33:08;7.40;;;4.73;;
10701;SDS011;5402;50.004;8.246;2023-01-29T03:35:37;5.60;;;4.70;;
10701;SDS011;5402;50.004;8.246;2023-01-29T03:38:12;9.43;;;5.43;;
10701;SDS011;5402;50.004;8.246;2023-01-29T03:40:42;6.80;;;5.13;;
10701;SDS011;5402;50.004;8.246;2023-01-29T03:43:24;6.67;;;5.00;;
10701;SDS011;5402;50.004;8.246;2023-01-29T03:45:59;7.63;;;5.40;;
10701;SDS011;5402;50.004;8.246;2023-01-29T03:48:33;6.63;;;5.43;;
10701;SDS011;5402;50.004;8.246;2023-01-29T03:51:07;7.90;;;5.17;;
10701;SDS011;5402;50.004;8.246;2023-01-29T03:53:42;7.37;;;5.40;;
10701;SDS011;5402;50.004;8.246;2023-01-29T03:56:16;6.40;;;4.67;;
10701;SDS011;5402;50.004;8.246;2023-01-29T03:58:59;7.33;;;5.43;;
10701;SDS011;5402;50.004;8.246;2023-01-29T04:01:38;9.60;;;5.50;;
10701;SDS011;5402;50.004;8.246;2023-01-29T04:04:12;9.70;;;5.47;;
10701;SDS011;5402;50.004;8.246;2023-01-29T04:06:44;7.90;;;5.47;;
10701;SDS011;5402;50.004;8.246;2023-01-29T04:09:13;8.47;;;5.50;;
10701;SDS011;5402;50.004;8.246;2023-01-29T04:11:46;7.83;;;5.20;;
10701;SDS011;5402;50.004;8.246;2023-01-29T04:14:15;7.60;;;5.70;;
10701;SDS011;5402;50.004;8.246;2023-01-29T04:16:44;6.73;;;5.03;;
10701;SDS011;5402;50.004;8.246;2023-01-29T04:19:15;7.97;;;4.67;;
10701;SDS011;5402;50.004;8.246;2023-01-29T04:21:42;9.13;;;5.33;;
10701;SDS011;5402;50.004;8.246;2023-01-29T04:24:10;7.07;;;4.53;;
10701;SDS011;5402;50.004;8.246;2023-01-29T04:26:47;6.27;;;4.67;;
10701;SDS011;5402;50.004;8.246;2023-01-29T04:29:24;9.27;;;5.47;;
10701;SDS011;5402;50.004;8.246;2023-01-29T04:32:05;6.90;;;4.97;;
10701;SDS011;5402;50.004;8.246;2023-01-29T04:34:39;7.33;;;5.37;;
10701;SDS011;5402;50.004;8.246;2023-01-29T04:37:19;6.77;;;5.10;;
10701;SDS011;5402;50.004;8.246;2023-01-29T04:39:53;7.63;;;5.23;;
10701;SDS011;5402;50.004;8.246;2023-01-29T04:42:27;10.90;;;5.93;;
10701;SDS011;5402;50.004;8.246;2023-01-29T04:44:58;8.17;;;5.23;;
10701;SDS011;5402;50.004;8.246;2023-01-29T04:47:33;7.77;;;5.57;;
10701;SDS011;5402;50.004;8.246;2023-01-29T04:50:10;8.80;;;5.53;;
10701;SDS011;5402;50.004;8.246;2023-01-29T04:52:43;7.37;;;5.20;;
10701;SDS011;5402;50.004;8.246;2023-01-29T04:55:16;8.07;;;5.27;;
10701;SDS011;5402;50.004;8.246;2023-01-29T04:57:51;11.93;;;5.90;;
10701;SDS011;5402;50.004;8.246;2023-01-29T05:00:26;8.50;;;5.67;;
10701;SDS011;5402;50.004;8.246;2023-01-29T05:02:57;7.40;;;5.47;;
10701;SDS011;5402;50.004;8.246;2023-01-29T05:05:26;6.73;;;5.07;;
10701;SDS011;5402;50.004;8.246;2023-01-29T05:07:54;9.63;;;5.00;;
10701;SDS011;5402;50.004;8.246;2023-01-29T05:10:22;8.47;;;5.27;;
10701;SDS011;5402;50.004;8.246;2023-01-29T05:12:52;7.63;;;5.37;;
10701;SDS011;5402;50.004;8.246;2023-01-29T05:15:24;8.50;;;5.17;;
10701;SDS011;5402;50.004;8.246;2023-01-29T05:17:58;6.77;;;4.80;;
10701;SDS011;5402;50.004;8.246;2023-01-29T05:20:26;6.70;;;5.30;;
10701;SDS011;5402;50.004;8.246;2023-01-29T05:22:55;7.93;;;5.10;;
10701;SDS011;5402;50.004;8.246;2023-01-29T05:25:23;6.90;;;4.73;;
10701;SDS011;5402;50.004;8.246;2023-01-29T05:27:51;9.00;;;5.07;;
10701;SDS011;5402;50.004;8.246;2023-01-29T05:30:31;6.17;;;4.73;;
10701;SDS011;5402;50.004;8.246;2023-01-29T05:33:00;7.20;;;4.60;;
10701;SDS011;5402;50.004;8.246;2023-01-29T05:35:27;6.40;;;4.47;;
10701;SDS011;5402;50.004;8.246;2023-01-29T05:37:54;8.17;;;5.00;;
10701;SDS011;5402;50.004;8.246;2023-01-29T05:40:21;8.70;;;4.57;;
10701;SDS011;5402;50.004;8.246;2023-01-29T05:42:49;6.47;;;4.87;;
10701;SDS011;5402;50.004;8.246;2023-01-29T05:45:15;6.23;;;4.87;;
10701;SDS011;5402;50.004;8.246;2023-01-29T05:47:43;6.13;;;4.67;;
10701;SDS011;5402;50.004;8.246;2023-01-29T05:50:11;7.13;;;5.20;;
10701;SDS011;5402;50.004;8.246;2023-01-29T05:52:39;9.03;;;4.93;;
10701;SDS011;5402;50.004;8.246;2023-01-29T05:55:06;7.87;;;5.03;;
10701;SDS011;5402;50.004;8.246;2023-01-29T05:57:34;6.63;;;5.00;;
10701;SDS011;5402;50.004;8.246;2023-01-29T06:00:00;7.80;;;5.23;;
10701;SDS011;5402;50.004;8.246;2023-01-29T06:02:28;8.07;;;4.73;;
10701;SDS011;5402;50.004;8.246;2023-01-29T06:04:55;5.47;;;4.60;;
10701;SDS011;5402;50.004;8.246;2023-01-29T06:07:23;6.67;;;4.67;;
10701;SDS011;5402;50.004;8.246;2023-01-29T06:09:50;6.90;;;4.67;;
10701;SDS011;5402;50.004;8.246;2023-01-29T06:12:17;7.10;;;4.73;;
10701;SDS011;5402;50.004;8.246;2023-01-29T06:14:44;5.70;;;4.33;;
10701;SDS011;5402;50.004;8.246;2023-01-29T06:17:10;7.10;;;4.67;;
10701;SDS011;5402;50.004;8.246;2023-01-29T06:19:37;7.63;;;4.90;;
10701;SDS011;5402;50.004;8.246;2023-01-29T06:22:04;7.33;;;4.70;;
10701;SDS011;5402;50.004;8.246;2023-01-29T06:24:32;7.17;;;4.93;;
10701;SDS011;5402;50.004;8.246;2023-01-29T06:26:58;8.17;;;4.87;;
10701;SDS011;5402;50.004;8.246;2023-01-29T06:29:25;7.23;;;4.50;;
10701;SDS011;5402;50.004;8.246;2023-01-29T06:31:52;7.27;;;4.80;;
10701;SDS011;5402;50.004;8.246;2023-01-29T06:34:19;9.50;;;5.10;;
10701;SDS011;5402;50.004;8.246;2023-01-29T06:36:46;7.20;;;4.77;;
10701;SDS011;5402;50.004;8.246;2023-01-29T06:39:12;8.43;;;4.90;;
10701;SDS011;5402;50.004;8.246;2023-01-29T06:41:41;7.67;;;4.87;;
10701;SDS011;5402;50.004;8.246;2023-01-29T06:44:09;7.47;;;5.17;;
10701;SDS011;5402;50.004;8.246;2023-01-29T06:46:36;7.17;;;4.90;;
10701;SDS011;5402;50.004;8.246;2023-01-29T06:49:02;6.73;;;4.90;;
10701;SDS011;5402;50.004;8.246;2023-01-29T06:51:29;7.60;;;4.87;;
10701;SDS011;5402;50.004;8.246;2023-01-29T06:53:56;7.20;;;5.13;;
10701;SDS011;5402;50.004;8.246;2023-01-29T06:56:23;7.57;;;5.03;;
10701;SDS011;5402;50.004;8.246;2023-01-29T06:58:51;8.77;;;5.00;;
10701;SDS011;5402;50.004;8.246;2023-01-29T07:01:18;7.93;;;5.30;;
10701;SDS011;5402;50.004;8.246;2023-01-29T07:03:47;6.50;;;4.77;;
10701;SDS011;5402;50.004;8.246;2023-01-29T07:06:14;7.40;;;4.90;;
10701;SDS011;5402;50.004;8.246;2023-01-29T07:08:41;6.93;;;5.03;;
10701;SDS011;5402;50.004;8.246;2023-01-29T07:11:08;8.13;;;5.30;;
10701;SDS011;5402;50.004;8.246;2023-01-29T07:13:35;7.00;;;5.00;;
10701;SDS011;5402;50.004;8.246;2023-01-29T07:16:03;9.83;;;5.53;;
10701;SDS011;5402;50.004;8.246;2023-01-29T07:18:31;8.20;;;4.97;;
10701;SDS011;5402;50.004;8.246;2023-01-29T07:20:58;7.83;;;5.53;;
10701;SDS011;5402;50.004;8.246;2023-01-29T07:23:28;10.03;;;5.47;;
10701;SDS011;5402;50.004;8.246;2023-01-29T07:25:55;7.80;;;5.67;;
10701;SDS011;5402;50.004;8.246;2023-01-29T07:28:25;7.13;;;4.97;;
10701;SDS011;5402;50.004;8.246;2023-01-29T07:30:54;6.60;;;5.00;;
10701;SDS011;5402;50.004;8.246;2023-01-29T07:33:22;6.07;;;4.40;;
10701;SDS011;5402;50.004;8.246;2023-01-29T07:35:49;7.17;;;4.30;;
10701;SDS011;5402;50.004;8.246;2023-01-29T07:38:16;6.57;;;4.50;;
10701;SDS011;5402;50.004;8.246;2023-01-29T07:40:42;7.57;;;5.30;;
10701;SDS011;5402;50.004;8.246;2023-01-29T07:43:09;6.70;;;4.83;;
10701;SDS011;5402;50.004;8.246;2023-01-29T07:45:37;8.27;;;4.87;;
10701;SDS011;5402;50.004;8.246;2023-01-29T07:48:05;7.03;;;5.13;;
10701;SDS011;5402;50.004;8.246;2023-01-29T07:50:34;5.87;;;4.47;;
10701;SDS011;5402;50.004;8.246;2023-01-29T07:53:00;7.90;;;4.73;;
10701;SDS011;5402;50.004;8.246;2023-01-29T07:55:27;7.90;;;5.03;;
10701;SDS011;5402;50.004;8.246;2023-01-29T07:57:55;8.00;;;5.10;;
10701;SDS011;5402;50.004;8.246;2023-01-29T08:00:22;7.03;;;4.93;;
10701;SDS011;5402;50.004;8.246;2023-01-29T08:02:49;9.03;;;5.53;;
10701;SDS011;5402;50.004;8.246;2023-01-29T08:05:16;7.33;;;5.27;;
10701;SDS011;5402;50.004;8.246;2023-01-29T08:07:44;7.87;;;5.20;;
10701;SDS011;5402;50.004;8.246;2023-01-29T08:10:11;6.50;;;4.93;;
10701;SDS011;5402;50.004;8.246;2023-01-29T08:12:38;7.73;;;5.23;;
10701;SDS011;5402;50.004;8.246;2023-01-29T08:15:05;8.23;;;5.20;;
10701;SDS011;5402;50.004;8.246;2023-01-29T08:17:32;7.20;;;4.87;;
10701;SDS011;5402;50.004;8.246;2023-01-29T08:19:58;6.70;;;5.10;;
10701;SDS011;5402;50.004;8.246;2023-01-29T08:22:25;7.43;;;5.10;;
10701;SDS011;5402;50.004;8.246;2023-01-29T08:24:53;7.40;;;4.70;;
10701;SDS011;5402;50.004;8.246;2023-01-29T08:27:20;6.17;;;4.37;;
10701;SDS011;5402;50.004;8.246;2023-01-29T08:29:47;7.40;;;5.27;;
10701;SDS011;5402;50.004;8.246;2023-01-29T08:32:13;5.90;;;4.87;;
10701;SDS011;5402;50.004;8.246;2023-01-29T08:34:40;6.50;;;4.70;;
10701;SDS011;5402;50.004;8.246;2023-01-29T08:37:07;5.87;;;4.93;;
10701;SDS011;5402;50.004;8.246;2023-01-29T08:39:33;7.77;;;5.23;;
10701;SDS011;5402;50.004;8.246;2023-01-29T08:42:01;8.50;;;5.13;;
10701;SDS011;5402;50.004;8.246;2023-01-29T08:44:28;7.70;;;5.70;;
10701;SDS011;5402;50.004;8.246;2023-01-29T08:46:55;6.93;;;5.07;;
10701;SDS011;5402;50.004;8.246;2023-01-29T08:49:22;6.53;;;5.13;;
10701;SDS011;5402;50.004;8.246;2023-01-29T08:51:48;6.90;;;5.37;;
10701;SDS011;5402;50.004;8.246;2023-01-29T08:54:15;6.37;;;4.80;;
10701;SDS011;5402;50.004;8.246;2023-01-29T08:56:42;7.93;;;5.30;;
10701;SDS011;5402;50.004;8.246;2023-01-29T08:59:10;5.73;;;4.53;;
10701;SDS011;5402;50.004;8.246;2023-01-29T09:01:37;5.67;;;4.43;;
10701;SDS011;5402;50.004;8.246;2023-01-29T09:04:04;6.40;;;4.53;;
10701;SDS011;5402;50.004;8.246;2023-01-29T09:06:31;5.87;;;4.90;;
10701;SDS011;5402;50.004;8.246;2023-01-29T09:08:57;6.93;;;4.97;;
10701;SDS011;5402;50.004;8.246;2023-01-29T09:11:24;7.97;;;4.80;;
10701;SDS011;5402;50.004;8.246;2023-01-29T09:13:51;7.90;;;5.50;;
10701;SDS011;5402;50.004;8.246;2023-01-29T09:16:19;7.90;;;5.20;;
10701;SDS011;5402;50.004;8.246;2023-01-29T09:18:46;7.13;;;5.30;;
10701;SDS011;5402;50.004;8.246;2023-01-29T09:21:12;8.23;;;5.73;;
10701;SDS011;5402;50.004;8.246;2023-01-29T09:23:39;10.17;;;5.60;;
10701;SDS011;5402;50.004;8.246;2023-01-29T09:26:06;7.30;;;5.13;;
10701;SDS011;5402;50.004;8.246;2023-01-29T09:28:33;6.00;;;4.67;;
10701;SDS011;5402;50.004;8.246;2023-01-29T09:31:00;8.83;;;5.27;;
10701;SDS011;5402;50.004;8.246;2023-01-29T09:33:28;7.13;;;5.17;;
10701;SDS011;5402;50.004;8.246;2023-01-29T09:35:56;6.93;;;4.50;;
10701;SDS011;5402;50.004;8.246;2023-01-29T09:38:23;9.00;;;5.40;;
10701;SDS011;5402;50.004;8.246;2023-01-29T09:40:53;8.50;;;5.67;;
10701;SDS011;5402;50.004;8.246;2023-01-29T09:43:26;7.90;;;4.97;;
10701;SDS011;5402;50.004;8.246;2023-01-29T09:46:05;8.10;;;5.87;;
10701;SDS011;5402;50.004;8.246;2023-01-29T09:48:40;9.30;;;5.57;;
10701;SDS011;5402;50.004;8.246;2023-01-29T09:51:11;8.43;;;6.10;;
10701;SDS011;5402;50.004;8.246;2023-01-29T09:53:50;8.57;;;4.80;;
10701;SDS011;5402;50.004;8.246;2023-01-29T09:56:21;8.50;;;5.27;;
10701;SDS011;5402;50.004;8.246;2023-01-29T09:58:52;6.37;;;4.90;;
10701;SDS011;5402;50.004;8.246;2023-01-29T10:01:25;9.57;;;5.87;;
10701;SDS011;5402;50.004;8.246;2023-01-29T10:04:11;6.20;;;4.93;;
10701;SDS011;5402;50.004;8.246;2023-01-29T10:06:57;7.70;;;5.53;;
10701;SDS011;5402;50.004;8.246;2023-01-29T10:09:40;8.13;;;5.17;;
10701;SDS011;5402;50.004;8.246;2023-01-29T10:12:27;6.90;;;4.67;;
10701;SDS011;5402;50.004;8.246;2023-01-29T10:15:04;6.87;;;4.90;;
10701;SDS011;5402;50.004;8.246;2023-01-29T10:17:48;10.10;;;5.27;;
10701;SDS011;5402;50.004;8.246;2023-01-29T10:20:34;7.50;;;4.73;;
10701;SDS011;5402;50.004;8.246;2023-01-29T10:23:21;7.70;;;5.27;;
10701;SDS011;5402;50.004;8.246;2023-01-29T10:25:52;6.80;;;4.93;;
10701;SDS011;5402;50.004;8.246;2023-01-29T10:28:20;7.87;;;5.50;;
10701;SDS011;5402;50.004;8.246;2023-01-29T10:30:53;7.60;;;5.20;;
10701;SDS011;5402;50.004;8.246;2023-01-29T10:33:25;9.00;;;5.87;;
10701;SDS011;5402;50.004;8.246;2023-01-29T10:35:59;12.80;;;7.47;;
10701;SDS011;5402;50.004;8.246;2023-01-29T10:38:30;7.90;;;5.60;;
10701;SDS011;5402;50.004;8.246;2023-01-29T10:41:15;5.37;;;4.40;;
10701;SDS011;5402;50.004;8.246;2023-01-29T10:43:54;7.67;;;5.30;;
10701;SDS011;5402;50.004;8.246;2023-01-29T10:46:31;6.33;;;5.07;;
10701;SDS011;5402;50.004;8.246;2023-01-29T10:49:14;6.43;;;4.80;;
10701;SDS011;5402;50.004;8.246;2023-01-29T10:52:04;6.97;;;5.07;;
10701;SDS011;5402;50.004;8.246;2023-01-29T10:54:54;6.47;;;4.80;;
10701;SDS011;5402;50.004;8.246;2023-01-29T10:57:35;7.93;;;5.23;;
10701;SDS011;5402;50.004;8.246;2023-01-29T11:00:12;7.67;;;5.30;;
10701;SDS011;5402;50.004;8.246;2023-01-29T11:02:45;7.47;;;5.00;;
10701;SDS011;5402;50.004;8.246;2023-01-29T11:05:16;6.47;;;4.80;;
10701;SDS011;5402;50.004;8.246;2023-01-29T11:07:48;8.93;;;5.20;;
10701;SDS011;5402;50.004;8.246;2023-01-29T11:10:30;9.20;;;6.30;;
10701;SDS011;5402;50.004;8.246;2023-01-29T11:13:02;7.27;;;5.20;;
10701;SDS011;5402;50.004;8.246;2023-01-29T11:15:31;7.23;;;4.83;;
10701;SDS011;5402;50.004;8.246;2023-01-29T11:18:02;10.00;;;5.30;;
10701;SDS011;5402;50.004;8.246;2023-01-29T11:20:31;5.90;;;4.43;;
10701;SDS011;5402;50.004;8.246;2023-01-29T11:23:00;5.57;;;4.60;;
10701;SDS011;5402;50.004;8.246;2023-01-29T11:25:27;6.93;;;5.13;;
10701;SDS011;5402;50.004;8.246;2023-01-29T11:27:57;5.97;;;4.67;;
10701;SDS011;5402;50.004;8.246;2023-01-29T11:30:26;6.77;;;4.90;;
10701;SDS011;5402;50.004;8.246;2023-01-29T11:32:58;5.83;;;4.60;;
10701;SDS011;5402;50.004;8.246;2023-01-29T11:35:32;8.03;;;4.93;;
10701;SDS011;5402;50.004;8.246;2023-01-29T11:38:06;6.70;;;5.07;;
10701;SDS011;5402;50.004;8.246;2023-01-29T11:40:42;7.77;;;4.87;;
10701;SDS011;5402;50.004;8.246;2023-01-29T11:43:11;7.87;;;5.00;;
10701;SDS011;5402;50.004;8.246;2023-01-29T11:45:42;6.87;;;4.90;;
10701;SDS011;5402;50.004;8.246;2023-01-29T11:48:11;6.53;;;4.67;;
10701;SDS011;5402;50.004;8.246;2023-01-29T11:50:41;6.47;;;4.60;;
10701;SDS011;5402;50.004;8.246;2023-01-29T11:53:20;7.43;;;5.30;;
10701;SDS011;5402;50.004;8.246;2023-01-29T11:56:02;7.27;;;4.50;;
10701;SDS011;5402;50.004;8.246;2023-01-29T11:58:33;6.03;;;4.70;;
10701;SDS011;5402;50.004;8.246;2023-01-29T12:01:03;6.53;;;4.77;;
10701;SDS011;5402;50.004;8.246;2023-01-29T12:03:32;7.33;;;5.20;;
10701;SDS011;5402;50.004;8.246;2023-01-29T12:06:05;8.37;;;6.33;;
10701;SDS011;5402;50.004;8.246;2023-01-29T12:08:35;8.40;;;5.30;;
10701;SDS011;5402;50.004;8.246;2023-01-29T12:11:07;6.23;;;5.30;;
10701;SDS011;5402;50.004;8.246;2023-01-29T12:13:36;6.63;;;5.27;;
10701;SDS011;5402;50.004;8.246;2023-01-29T12:16:09;6.17;;;4.93;;
10701;SDS011;5402;50.004;8.246;2023-01-29T12:18:42;8.23;;;5.00;;
10701;SDS011;5402;50.004;8.246;2023-01-29T12:21:13;6.73;;;5.03;;
10701;SDS011;5402;50.004;8.246;2023-01-29T12:23:49;7.43;;;5.10;;
10701;SDS011;5402;50.004;8.246;2023-01-29T12:26:23;5.63;;;4.57;;
10701;SDS011;5402;50.004;8.246;2023-01-29T12:28:57;6.50;;;4.80;;
10701;SDS011;5402;50.004;8.246;2023-01-29T12:31:40;6.00;;;4.97;;
10701;SDS011;5402;50.004;8.246;2023-01-29T12:34:14;7.67;;;5.10;;
10701;SDS011;5402;50.004;8.246;2023-01-29T12:36:46;7.50;;;5.13;;
10701;SDS011;5402;50.004;8.246;2023-01-29T12:39:18;6.87;;;4.60;;
10701;SDS011;5402;50.004;8.246;2023-01-29T12:41:47;6.73;;;5.13;;
10701;SDS011;5402;50.004;8.246;2023-01-29T12:44:18;7.43;;;5.23;;
10701;SDS011;5402;50.004;8.246;2023-01-29T12:46:50;8.30;;;4.90;;
10701;SDS011;5402;50.004;8.246;2023-01-29T12:49:21;6.10;;;5.03;;
10701;SDS011;5402;50.004;8.246;2023-01-29T12:51:51;9.00;;;5.00;;
10701;SDS011;5402;50.004;8.246;2023-01-29T12:54:26;7.30;;;5.77;;
10701;SDS011;5402;50.004;8.246;2023-01-29T12:56:58;8.33;;;5.63;;
10701;SDS011;5402;50.004;8.246;2023-01-29T12:59:30;10.70;;;8.27;;
10701;SDS011;5402;50.004;8.246;2023-01-29T13:02:05;8.30;;;5.03;;
10701;SDS011;5402;50.004;8.246;2023-01-29T13:04:44;7.87;;;5.53;;
10701;SDS011;5402;50.004;8.246;2023-01-29T13:07:18;6.73;;;5.10;;
10701;SDS011;5402;50.004;8.246;2023-01-29T13:09:51;9.07;;;5.07;;
10701;SDS011;5402;50.004;8.246;2023-01-29T13:12:20;7.77;;;5.20;;
10701;SDS011;5402;50.004;8.246;2023-01-29T13:14:50;5.87;;;4.63;;
10701;SDS011;5402;50.004;8.246;2023-01-29T13:17:21;6.27;;;5.13;;
10701;SDS011;5402;50.004;8.246;2023-01-29T13:19:51;8.53;;;5.30;;
10701;SDS011;5402;50.004;8.246;2023-01-29T13:22:23;6.90;;;5.27;;
10701;SDS011;5402;50.004;8.246;2023-01-29T13:24:54;5.80;;;4.70;;
10701;SDS011;5402;50.004;8.246;2023-01-29T13:27:23;9.03;;;5.10;;
10701;SDS011;5402;50.004;8.246;2023-01-29T13:29:51;5.60;;;4.50;;
10701;SDS011;5402;50.004;8.246;2023-01-29T13:32:20;6.43;;;4.63;;
10701;SDS011;5402;50.004;8.246;2023-01-29T13:34:50;7.07;;;4.77;;
10701;SDS011;5402;50.004;8.246;2023-01-29T13:37:23;7.63;;;4.67;;
10701;SDS011;5402;50.004;8.246;2023-01-29T13:39:56;8.07;;;5.70;;
10701;SDS011;5402;50.004;8.246;2023-01-29T13:42:25;6.33;;;4.73;;
10701;SDS011;5402;50.004;8.246;2023-01-29T13:45:05;6.40;;;4.77;;
10701;SDS011;5402;50.004;8.246;2023-01-29T13:47:34;7.97;;;6.30;;
10701;SDS011;5402;50.004;8.246;2023-01-29T13:50:04;7.00;;;5.03;;
10701;SDS011;5402;50.004;8.246;2023-01-29T13:52:34;6.73;;;4.77;;
10701;SDS011;5402;50.004;8.246;2023-01-29T13:55:07;7.37;;;5.13;;
10701;SDS011;5402;50.004;8.246;2023-01-29T13:57:53;7.00;;;5.30;;
10701;SDS011;5402;50.004;8.246;2023-01-29T14:03:40;5.73;;;5.17;;
10701;SDS011;5402;50.004;8.246;2023-01-29T14:06:10;9.63;;;5.23;;
10701;SDS011;5402;50.004;8.246;2023-01-29T14:08:57;7.43;;;5.20;;
10701;SDS011;5402;50.004;8.246;2023-01-29T14:11:36;7.53;;;5.40;;
10701;SDS011;5402;50.004;8.246;2023-01-29T14:14:03;7.03;;;5.20;;
10701;SDS011;5402;50.004;8.246;2023-01-29T14:17:07;6.83;;;5.03;;
10701;SDS011;5402;50.004;8.246;2023-01-29T14:19:34;6.73;;;4.80;;
10701;SDS011;5402;50.004;8.246;2023-01-29T14:22:01;6.97;;;4.80;;
10701;SDS011;5402;50.004;8.246;2023-01-29T14:24:29;7.53;;;5.03;;
10701;SDS011;5402;50.004;8.246;2023-01-29T14:26:58;6.87;;;4.83;;
10701;SDS011;5402;50.004;8.246;2023-01-29T14:29:25;7.13;;;5.27;;
10701;SDS011;5402;50.004;8.246;2023-01-29T14:31:56;7.87;;;5.13;;
10701;SDS011;5402;50.004;8.246;2023-01-29T14:34:25;6.60;;;5.03;;
10701;SDS011;5402;50.004;8.246;2023-01-29T14:36:54;9.30;;;5.23;;
10701;SDS011;5402;50.004;8.246;2023-01-29T14:39:28;5.93;;;4.80;;
10701;SDS011;5402;50.004;8.246;2023-01-29T14:42:00;7.63;;;5.77;;
10701;SDS011;5402;50.004;8.246;2023-01-29T14:50:45;8.10;;;5.77;;
10701;SDS011;5402;50.004;8.246;2023-01-29T14:53:34;7.17;;;5.07;;
10701;SDS011;5402;50.004;8.246;2023-01-29T14:56:20;6.27;;;4.70;;
10701;SDS011;5402;50.004;8.246;2023-01-29T14:58:53;7.63;;;5.30;;
10701;SDS011;5402;50.004;8.246;2023-01-29T15:01:28;7.97;;;5.23;;
10701;SDS011;5402;50.004;8.246;2023-01-29T15:04:01;9.47;;;5.67;;
10701;SDS011;5402;50.004;8.246;2023-01-29T15:06:31;7.87;;;5.10;;
10701;SDS011;5402;50.004;8.246;2023-01-29T15:09:05;5.87;;;5.10;;
10701;SDS011;5402;50.004;8.246;2023-01-29T15:11:39;7.97;;;4.73;;
10701;SDS011;5402;50.004;8.246;2023-01-29T15:14:20;8.37;;;5.13;;
10701;SDS011;5402;50.004;8.246;2023-01-29T15:16:53;6.23;;;4.63;;
10701;SDS011;5402;50.004;8.246;2023-01-29T15:19:28;6.17;;;4.53;;
10701;SDS011;5402;50.004;8.246;2023-01-29T15:22:01;8.23;;;4.97;;
10701;SDS011;5402;50.004;8.246;2023-01-29T15:24:32;6.43;;;4.40;;
10701;SDS011;5402;50.004;8.246;2023-01-29T15:27:00;7.37;;;4.90;;
10701;SDS011;5402;50.004;8.246;2023-01-29T15:29:29;6.43;;;4.90;;
10701;SDS011;5402;50.004;8.246;2023-01-29T15:31:56;5.47;;;4.33;;
10701;SDS011;5402;50.004;8.246;2023-01-29T15:34:24;6.33;;;4.83;;
10701;SDS011;5402;50.004;8.246;2023-01-29T15:36:51;5.23;;;4.40;;